x

8452944 - Conimicut Light, Ri (cptr1) Weather Station

11:54 - Wed 3rd Jun 2015 All times are EDT. -4 hours from GMT.

  • Wind
    6mph, 8mph gusts
  • Sea Temp 59°f
  • Luft Temp 55°f
  • Sea Pressure 1023.9mb
  • 8452944 - Conimicut Light, Ri
  • 8452944 - Conimicut Light, Ri

More Historic Weather Station data

Upgrade to MSW Pro to gain access to the past 30 days of data for over 8000 Wavebouys and Weather Stations around the globe.

Join Pro

Comparision Forecast

View Surf forecast
   
Mi 06/03 11:54 6 8 mph 1023.9mb 59f 55f
11:48 7 8 mph 1024mb 59f 55f
11:42 7
mph
1023.9mb 59f 55f
11:36 7 8 mph 1024mb 59f 55f
11:30 6 8 mph 1024mb 59f 55f
11:24 7 8 mph 1023.9mb 59f 54f
11:18 7 8 mph 1023.9mb 59f 54f
11:12 7 9 mph 1023.9mb 59f 54f
11:06 8 11 mph 1023.8mb 59f 54f
11:00 9 10 mph 1023.7mb 59f 54f
10:54 6
mph
1023.9mb 59f 54f
10:48 5 6 mph 1023.8mb 59f 54f
10:42 5 6 mph 1023.9mb 59f 54f
10:36 6 7 mph 1023.9mb 59f 53f
10:30 5 6 mph 1023.9mb 59f 54f
10:24 5
mph
1023.9mb 58f 53f
10:18 3 5 mph 1023.7mb 58f 53f
10:12 3
mph
1023.7mb 58f 53f
10:06 2 5 mph 1023.8mb 58f 52f
10:00 3 5 mph 1023.7mb 58f 52f
9:54 2 5 mph 1023.8mb 58f 52f
9:48 3 5 mph 1023.8mb 58f 51f
9:42 1 2 mph 1023.5mb 58f 52f
9:36  -  1 mph 1023.4mb 58f 52f
9:30  -  2 mph 1023.5mb 58f 51f
9:24 1 2 mph 1023.6mb 58f 51f
9:18 2 3 mph 1023.7mb 58f 50f
9:12 1 3 mph 1023.6mb 57f 50f
9:06 2 5 mph 1023.6mb 57f 50f
9:00 2 3 mph 1023.6mb 57f 50f
8:54 2 3 mph 1023.6mb 57f 50f
8:48 1 3 mph 1023.6mb 57f 50f
8:42  -  1 mph 1023.5mb 57f 50f
8:36  -  1 mph 1023.5mb 57f 50f
8:30  -  1 mph 1023.6mb 57f 50f
8:24  -  2 mph 1023.6mb 57f 50f
8:18 3
mph
1023.5mb 57f 50f
8:12 3 6 mph 1023.5mb 57f 49f
8:06 5 6 mph 1023.4mb 57f 49f
8:00 5 7 mph 1023.5mb 57f 49f
7:54 7 8 mph 1023.5mb 57f 49f
7:48 8 11 mph 1023.4mb 57f 49f
7:42 7 9 mph 1023.4mb 57f 49f
7:36 9 11 mph 1023.3mb 57f 48f
7:30 8 10 mph 1023.3mb 57f 48f
7:24 5 6 mph 1023.1mb 57f 49f
7:18 5 8 mph 1023mb 57f 49f
7:12 8 9 mph 1023.1mb 57f 48f
7:06 6 7 mph 1023.2mb 58f 48f
7:00 6 8 mph 1023.2mb 58f 48f
6:54 6 7 mph 1023.1mb 58f 48f
6:48 7 8 mph 1023.1mb 58f 48f
6:42 7 8 mph 1023.1mb 58f 48f
6:36 7 9 mph 1023.1mb 58f 48f
6:30 7 10 mph 1022.9mb 58f 48f
6:24 8 10 mph 1023mb 58f 48f
6:18 8 9 mph 1023mb 58f 48f
6:12 7 9 mph 1023mb 58f 48f
6:06 7 9 mph 1023mb 59f 48f
6:00 7 9 mph 1023mb 59f 48f
5:54 7 8 mph 1022.8mb 59f 48f
5:48 7 9 mph 1022.7mb 59f 48f
5:42 8 9 mph 1022.6mb 59f 48f
5:36 8 10 mph 1022.6mb 59f 48f
5:30 9 11 mph 1022.6mb 59f 49f
5:24 10 11 mph 1022.6mb 59f 49f
5:18 11 13 mph 1022.5mb 59f 49f
5:12 9 10 mph 1022.5mb 59f 49f
5:06 9 11 mph 1022.6mb 59f 49f
5:00 8 9 mph 1022.6mb 59f 49f
4:54 7 9 mph 1022.6mb 59f 49f
4:48 7 10 mph 1022.6mb 59f 49f
4:42 8 10 mph 1022.6mb 59f 49f
4:36 9 10 mph 1022.6mb 59f 49f
4:30 8 10 mph 1022.6mb 59f 49f
4:24 9 10 mph 1022.5mb 59f 49f
4:18 8 14 mph 1022.4mb 59f 49f
4:12 9 10 mph 1022.4mb 59f 49f
4:06 8 11 mph 1022.4mb 59f 49f
4:00 9 13 mph 1022.4mb 59f 49f
3:54 9 13 mph 1022.4mb 59f 49f
3:48 9 11 mph 1022.4mb 59f 49f
3:42 8 10 mph 1022.4mb 59f 49f
3:36 6 10 mph 1022.4mb 59f 49f
3:30 8 11 mph 1022.2mb 59f 49f
3:24 9 13 mph 1022.2mb 59f 49f
3:18 9 11 mph 1022.2mb 59f 49f
3:12 9 11 mph 1022.3mb 59f 49f
3:06 9 10 mph 1022.3mb 59f 49f
3:00  -  mph - 59f -
2:54  -  mph - 59f -
2:48 11 14 mph - 59f -
2:42 10 13 mph - 59f -
2:36 9 11 mph - 59f -
2:30 8 10 mph - 59f -
2:24 8 10 mph - 59f -
2:18 9 10 mph - - -
2:12 8 10 mph - - -
2:06 8 9 mph - - -
2:00  -  mph 1022.3mb 60f 49f
1:54  -  mph 1022.2mb 60f 49f
1:48 10 13 mph 1022.2mb 60f 49f
1:42 9 14 mph 1022.1mb 60f 49f
1:36 10 13 mph 1022.1mb 60f 49f
1:30 11 13 mph 1022mb 60f 49f
1:24 10 13 mph 1022.1mb 60f 49f
1:18 9 13 mph 1022.1mb 60f 49f
1:12 11 13 mph 1022.2mb 60f 49f
1:06 8 14 mph 1022.1mb 60f 49f
1:00 8 13 mph 1022.1mb 60f 49f
12:54 9 13 mph 1022.1mb 60f 49f
12:48 9 13 mph 1022.2mb 60f 49f
12:42 10 11 mph 1022.3mb 60f 49f
12:36 8 10 mph 1022.3mb 60f 49f
12:30 8 9 mph 1022.4mb 60f 49f
12:24 7 9 mph 1022.4mb 60f 49f
12:18 7 9 mph 1022.4mb 60f 49f
12:12 7 9 mph 1022.5mb 60f 49f
12:06 7 9 mph 1022.5mb 60f 49f
12:00 9 11 mph 1022.4mb 60f 49f
Di 06/02 11:54 9 10 mph 1022.5mb 60f 49f
11:48 9 10 mph 1022.4mb 60f 49f
11:42 10 11 mph 1022.5mb 60f 49f
11:36 10 11 mph 1022.4mb 60f 49f
11:30 9 10 mph 1022.3mb 60f 49f
11:24 8 9 mph 1022.1mb 60f 49f
11:18 6 8 mph 1022.2mb 60f 49f
11:12 6 7 mph 1022.2mb 60f 49f
11:06 7 8 mph 1022.1mb 60f 49f
11:00 7 9 mph 1022.2mb 60f 49f
10:54 7 9 mph 1022.1mb 60f 49f
10:48 7 9 mph 1022.1mb 60f 49f
10:42 8 10 mph 1022.1mb 60f 49f
10:36 7 9 mph 1022.1mb 60f 49f
10:30 8 11 mph 1022.2mb 60f 49f
10:24 7 10 mph 1022.2mb 60f 49f
10:18 9 11 mph 1022.1mb 60f 49f
10:12 8 13 mph 1022.1mb 60f 49f
10:06 10 13 mph 1022.2mb 60f 49f
10:00 10 13 mph 1022.3mb 60f 49f
9:54 9 13 mph 1022.3mb 60f 49f
9:48 10 13 mph 1022.3mb 59f 49f
9:42 9 13 mph 1022.2mb 59f 49f
9:36 11 14 mph 1022.1mb 59f 49f
9:30 11 14 mph 1022.1mb 59f 49f
9:24 9 11 mph 1022.1mb 59f 49f
9:18 10 14 mph 1022mb 59f 49f
9:12 11 14 mph 1021.9mb 59f 49f
9:06 11 16 mph 1021.8mb 59f 49f
9:00 10 14 mph 1021.8mb 59f 49f
8:54 11 15 mph 1021.7mb 59f 49f
8:48 11 16 mph 1021.6mb 59f 49f
8:42 13 17 mph 1021.6mb 59f 49f
8:36 11 17 mph 1021.6mb 59f 49f
8:30 13 16 mph 1021.6mb 59f 49f
8:24 11 15 mph 1021.6mb 59f 49f
8:18 13 16 mph 1021.5mb 59f 49f
8:12 10 16 mph 1021.5mb 59f 49f
8:06 11 18 mph 1021.4mb 59f 49f
8:00 13 18 mph 1021.4mb 59f 50f
7:54 13 17 mph 1021.3mb 59f 50f
7:48 13 17 mph 1021.4mb 59f 50f
7:42 10 16 mph 1021.5mb 59f 50f
7:36 14 20 mph 1021.4mb 59f 50f
7:30 11 15 mph 1021.4mb 59f 50f
7:24 13 15 mph 1021.4mb 59f 50f
7:18 13 14 mph 1021.3mb 59f 50f
7:12 14 16 mph 1021.3mb 59f 50f
7:06 13 17 mph 1021.2mb 59f 50f
7:00 14 18 mph 1021.2mb 59f 50f
6:54 15 20 mph 1021.2mb 59f 50f
6:48 14 18 mph 1021.2mb 59f 50f
6:42 15 18 mph 1021.2mb 59f 50f
6:36 16 20 mph 1021.2mb 60f 51f
6:30 14 20 mph 1021.1mb 60f 51f
6:24 15 20 mph 1021mb 60f 51f
6:18 17 23 mph 1021mb 60f 51f
6:12 14 18 mph 1020.9mb 60f 51f
6:06 14 21 mph 1020.7mb 60f 51f
6:00 17 23 mph 1020.7mb 61f 51f
5:54 16 21 mph 1020.7mb 61f 51f
5:48 16 21 mph 1020.6mb 61f 51f
5:42 14 16 mph 1020.7mb 61f 51f
5:36 14 17 mph 1020.6mb 61f 51f
5:30 15 20 mph 1020.6mb 61f 51f
5:24 18 22 mph 1020.5mb 61f 50f
5:18 14 21 mph 1020.6mb 61f 51f
5:12 17 21 mph 1020.6mb 61f 51f
5:06 14 18 mph 1020.6mb 61f 51f
5:00 15 18 mph 1020.5mb 61f 51f
4:54 14 17 mph 1020.5mb 61f 51f
4:48 16 22 mph 1020.4mb 61f 50f
4:42 16 22 mph 1020.4mb 61f 50f
4:36 14 18 mph 1020.3mb 61f 51f
4:30 11 20 mph 1020.4mb 61f 51f
4:24 16 21 mph 1020.5mb 61f 51f
4:18 13 16 mph 1020.4mb 61f 51f
4:12 15 21 mph 1020.6mb 61f 51f
4:06 16 20 mph 1020.6mb 61f 51f
4:00 16 21 mph 1020.6mb 61f 51f
3:54 16 21 mph 1020.6mb 61f 51f
3:48 13 18 mph 1020.6mb 61f 51f
3:42 14 20 mph 1020.7mb 61f 51f
3:36 16 17 mph 1020.7mb 61f 51f
3:30 18 21 mph 1020.7mb 61f 51f
3:24 13 16 mph 1020.7mb 61f 51f
3:18 15 17 mph 1020.7mb 61f 51f
3:12 14 18 mph 1020.7mb 61f 51f
3:06 13 17 mph 1020.8mb 61f 51f
3:00 14 20 mph 1020.8mb 61f 51f
2:54 14 21 mph 1020.9mb 61f 51f
2:48 17 22 mph 1020.8mb 61f 51f
2:42 16 20 mph 1020.8mb 61f 51f
2:36 16 21 mph 1020.8mb 61f 51f
2:30 17 21 mph 1020.7mb 61f 51f
2:24 16 22 mph 1020.7mb 61f 51f
2:18 16 18 mph 1020.8mb 61f 51f
2:12 15 20 mph 1020.9mb 61f 51f
2:06 17 21 mph 1020.9mb 61f 51f
2:00 14 21 mph 1020.9mb 61f 51f
1:54 18 23 mph 1020.8mb 61f 51f
1:48 18 22 mph 1020.9mb 61f 51f
1:42 17 23 mph 1020.8mb 61f 51f
1:36 16 22 mph 1020.9mb 61f 51f
1:30 15 21 mph 1020.9mb 61f 51f
1:24 14 21 mph 1020.9mb 61f 51f
1:18 18 23 mph 1020.8mb 61f 51f
1:12 15 18 mph 1021mb 61f 51f
1:06 17 22 mph 1021mb 61f 51f
1:00 20 23 mph 1021mb 61f 51f
12:54 14 25 mph 1021.2mb 61f 51f
12:48 17 21 mph 1021.2mb 62f 50f
12:42 15 18 mph 1021.2mb 62f 51f
12:36 17 21 mph 1021.3mb 62f 51f
12:30 18 23 mph 1021.3mb 62f 50f
12:24 15 23 mph 1021.3mb 62f 51f
12:18 20 23 mph 1021.1mb 62f 51f
12:12 18 22 mph 1021mb 62f 51f
12:06 17 24 mph 1021mb 62f 51f
12:00 15 17 mph 1021mb 62f 51f
11:54 15 20 mph 1021.1mb 62f 51f
11:48 16 20 mph 1021mb 62f 50f
11:42 13 18 mph 1021mb 62f 51f
11:36 13 16 mph 1021mb 62f 50f
11:30 13 16 mph 1020.9mb 62f 50f
11:24 15 18 mph 1020.9mb 62f 50f
11:18 11 15 mph 1021.1mb 62f 50f
11:12 13 17 mph 1021mb 62f 50f
11:06 16 20 mph 1020.9mb 62f 50f
11:00 13 16 mph 1021mb 62f 50f
10:54 11 15 mph 1021.1mb 62f 50f
10:48 13 16 mph 1021mb 62f 50f
10:42 16 21 mph 1020.8mb 62f 50f
10:36 15 20 mph 1020.7mb 62f 50f
10:30 13 17 mph 1020.6mb 62f 50f
10:24 13 17 mph 1020.7mb 62f 50f
10:18 16 18 mph 1020.7mb 62f 50f
10:12 14 18 mph 1020.7mb 62f 50f
10:06 13 17 mph 1020.9mb 62f 50f
10:00 11 15 mph 1020.9mb 62f 50f
9:54 14 17 mph 1020.7mb 62f 50f
9:48 14 17 mph 1020.6mb 61f 50f
9:42 14 17 mph 1020.6mb 61f 50f
9:36 13 17 mph 1020.5mb 61f 50f
9:30 14 18 mph 1020.4mb 61f 50f
9:24 15 20 mph 1020.5mb 61f 50f
9:18 17 21 mph 1020.4mb 61f 49f
9:12 14 18 mph 1020.5mb 61f 50f
9:06 14 18 mph 1020.6mb 61f 50f
9:00 14 17 mph 1020.5mb 61f 49f
8:54 13 17 mph 1020.5mb 61f 50f
8:48 13 16 mph 1020.4mb 61f 49f
8:42 13 16 mph 1020.5mb 61f 49f
8:36 14 17 mph 1020.3mb 61f 49f
8:30 15 20 mph 1020.2mb 61f 49f
8:24 15 21 mph 1020.2mb 61f 49f
8:18 14 16 mph 1020.2mb 61f 49f
8:12 14 20 mph 1020.2mb 61f 50f
8:06 15 18 mph 1020.3mb 60f 49f
8:00 14 17 mph 1020.2mb 60f 49f
7:54 17 21 mph 1020.3mb 60f 49f
7:48 15 18 mph 1020.3mb 59f 49f
7:42 15 22 mph 1020.1mb 59f 49f
7:36 17 20 mph 1020.1mb 60f 49f
7:30 15 17 mph 1020.4mb 60f 49f
7:24 15 17 mph 1020.7mb 60f 49f
7:18 11 18 mph 1020.7mb 60f 49f
7:12 14 16 mph 1020.7mb 60f 49f
7:06 14 17 mph 1021mb 60f 49f
7:00 14 16 mph 1020.9mb 60f 49f
6:54 14 16 mph 1020.9mb 60f 49f
6:48 13 15 mph 1020.8mb 61f 49f
6:42 13 16 mph 1020.8mb 61f 49f
6:36 11 15 mph 1020.8mb 61f 49f
6:30 10 15 mph 1020.8mb 62f 49f
6:24 14 20 mph 1020.7mb 62f 49f
6:18 13 16 mph 1020.6mb 62f 49f
6:12 11 16 mph 1020.5mb 62f 49f
6:06 14 18 mph 1020.5mb 62f 49f
6:00 14 16 mph 1020.4mb 62f 49f
5:54 13 16 mph 1020.5mb 62f 49f
5:48 14 17 mph 1020.3mb 62f 49f
5:42 15 18 mph 1020.3mb 62f 49f
5:36 11 14 mph 1020.4mb 62f 49f
5:30 11 15 mph 1020.3mb 62f 49f
5:24 11 16 mph 1020.1mb 62f 49f
5:18 11 15 mph 1020mb - 49f
5:12 11 15 mph 1020.1mb - 49f
5:06 10 15 mph 1020.2mb - 49f
5:00 10 14 mph - 63f 49f
4:54 11 15 mph - 63f 49f
4:48 11 15 mph 1020.2mb 63f 49f
4:42 11 16 mph 1020.1mb 63f 49f
4:36 9 16 mph 1020.2mb 63f 49f
4:30 11 15 mph 1020.2mb 63f 49f
4:24 13 17 mph 1020.1mb 63f 49f
4:18 14 18 mph 1020.2mb 63f 49f
4:12 13 17 mph 1020.4mb 63f 49f
4:06 13 18 mph 1020.4mb 63f 49f
4:00 14 17 mph 1020.6mb 63f 49f
3:54 13 16 mph 1020.6mb 63f 49f
3:30 15 20 mph 1020.7mb 63f 49f
3:24 11 15 mph 1020.9mb 63f 49f
3:18  -  mph 1020.9mb - -
3:12  -  mph 1020.9mb 63f 49f
3:06  -  mph 1020.9mb 63f 49f
3:00 14 17 mph 1021mb 63f 49f
2:54 11 17 mph 1021mb 63f 50f
2:48 14 16 mph 1021.1mb 63f 49f
2:42  -  mph 1021.2mb 63f -
2:36  -  mph 1021.3mb - -
2:30  -  mph - 63f -
2:12  -  mph - 63f 50f
2:06  -  mph - 64f 50f
2:00  -  mph - 64f 50f
1:54  -  mph - 64f 50f
1:48 13 18 mph 1021.4mb 64f 50f
1:42 13 16 mph 1021.4mb 64f 50f
1:36 13 17 mph 1021.4mb 64f 50f
1:30 13 17 mph 1021.6mb - 50f
1:24 14 17 mph 1021.5mb - 50f
1:18 10 15 mph 1021.7mb 64f 50f
1:12 13 15 mph 1021.7mb 64f 50f
1:06 11 16 mph 1021.8mb 64f 50f
1:00 11 15 mph 1021.7mb 64f 50f
12:54 11 15 mph 1021.8mb 64f 50f
12:48 11 15 mph 1021.9mb 64f 50f
12:42 13 18 mph 1021.8mb 64f 50f
12:36 13 16 mph 1021.9mb 64f 50f
12:30 11 16 mph 1021.9mb 64f 50f
12:24 14 16 mph 1022mb 64f 50f
12:18 11 17 mph 1022.1mb 64f 50f
12:12 10 17 mph 1022.1mb 64f 50f
12:06 11 17 mph 1022.1mb 64f 50f
12:00 11 18 mph 1022.3mb 64f 50f
Mo 06/01 11:54 14 21 mph 1022.1mb 64f 50f
11:48 14 18 mph 1022mb 64f 50f
11:42 11 14 mph 1022.2mb 64f 50f
11:36 11 18 mph 1022.2mb 64f 50f
11:30 15 21 mph 1022.1mb 64f 50f
11:24 13 21 mph 1022.1mb 64f 50f
11:18 11 17 mph 1022.1mb 64f 50f
11:12 14 17 mph 1022.5mb 64f 50f
11:06 11 16 mph 1022.6mb 64f 50f
11:00 14 17 mph 1022.6mb 64f 50f
10:54 11 15 mph 1022.7mb 64f 50f
10:48 14 23 mph 1022.7mb 64f 50f
10:42 11 16 mph 1022.6mb 64f 50f
10:36 14 17 mph 1022.6mb 64f 50f
10:30 13 18 mph 1022.6mb 64f 50f
10:24 11 15 mph 1022.6mb 64f 50f
10:18 9 16 mph 1022.9mb 64f 50f
10:12 9 18 mph 1022.9mb 64f 50f
10:06 14 20 mph 1022.7mb 64f 50f
10:00 11 20 mph 1022.9mb 64f 50f
9:54 15 18 mph 1022.8mb 64f 50f
9:48 10 18 mph 1022.9mb 64f 50f
9:42 14 17 mph 1022.8mb 64f 49f
9:36 11 17 mph 1022.8mb 64f 49f
9:30 16 20 mph 1022.8mb 64f 49f
9:24 14 18 mph 1022.8mb 64f 50f
9:18 13 17 mph 1022.7mb 64f 50f
9:12 15 20 mph 1022.7mb 64f 49f
9:06 16 21 mph 1022.5mb 64f 49f
9:00 14 17 mph 1022.6mb 64f 49f
8:54 13 18 mph 1022.6mb 64f 49f
8:48 14 18 mph 1022.7mb 64f 49f
8:42 15 17 mph 1022.6mb 64f 49f
8:36 11 17 mph 1022.6mb 64f 49f
8:30 14 18 mph 1022.6mb 64f 49f
8:24 13 17 mph 1022.6mb 64f 49f
8:18 11 21 mph 1022.6mb 64f 49f
8:12 16 20 mph 1022.5mb 64f 49f
8:06 16 20 mph 1022.6mb 64f 49f
8:00 14 16 mph 1022.6mb 64f 49f
7:54 13 17 mph 1022.7mb 64f 49f
7:48 13 18 mph 1022.7mb 64f 50f
7:42 13 18 mph 1022.6mb 64f 49f
7:36 11 20 mph 1022.7mb 64f 49f
7:30 14 18 mph 1022.7mb 63f 50f
7:24 16 20 mph 1022.7mb 63f 49f
7:18 14 18 mph 1022.9mb 63f 49f
7:12 14 18 mph 1022.8mb 63f 50f
7:06 14 16 mph 1023mb 63f 50f
7:00 13 16 mph 1022.9mb 63f 50f
6:54 14 20 mph 1022.7mb 63f 50f
6:48 16 24 mph 1022.7mb 63f 50f
6:42 15 28 mph 1022.6mb 63f 50f
6:36 16 22 mph 1022.6mb 63f 50f
6:30 17 24 mph 1022.6mb 63f 50f
6:24 14 22 mph 1022.7mb 62f 50f
6:18 14 21 mph 1022.6mb 62f 50f
6:12 14 18 mph 1022.5mb 62f 50f
6:06 16 24 mph 1022.5mb 62f 50f
6:00 18 24 mph 1022.5mb 63f 50f
5:54 17 22 mph 1022.4mb 63f 51f
5:48 16 20 mph 1022.5mb 64f 51f
5:42 17 28 mph 1022.4mb 64f 51f
5:36 20 28 mph 1022.3mb 64f 51f
5:30 18 23 mph 1022.3mb 65f 51f
5:24 17 23 mph 1022.4mb 65f 51f
5:18 16 24 mph 1022.5mb 65f 51f
5:12 18 24 mph 1022.5mb 65f 51f
5:06 20 24 mph 1022.6mb 65f 51f
5:00 16 20 mph 1022.7mb 65f 51f
4:54 11 24 mph 1022.6mb 65f 51f
4:48 16 23 mph 1022.5mb 65f 51f
4:42 15 21 mph 1022.5mb 65f 51f
4:36 11 16 mph 1022.6mb 65f 51f
4:30 14 21 mph 1022.6mb 65f 51f
4:24 14 20 mph 1022.6mb 65f 51f
4:18 17 20 mph 1022.6mb 65f 51f
4:12 17 21 mph 1022.7mb 65f 51f
4:06 17 21 mph 1022.7mb 66f 52f
4:00 11 18 mph 1022.8mb 66f 52f
3:54 14 21 mph 1022.7mb 66f 52f
3:48 16 21 mph 1022.7mb 66f 52f
3:42 16 22 mph 1022.7mb 66f 52f
3:36 17 25 mph 1022.5mb 66f 52f
3:30 18 25 mph 1022.5mb 66f 52f
3:24 17 24 mph 1022.5mb 66f 52f
3:18 18 22 mph 1022.6mb 66f 53f
3:12 17 22 mph 1022.5mb 66f 53f
3:06 16 22 mph 1022.5mb 66f 53f
3:00 17 24 mph 1022.6mb 66f 53f
2:54 21 24 mph 1022.7mb 66f 53f
2:48 16 22 mph 1022.6mb 66f 53f
2:42 16 22 mph 1022.7mb 66f 53f
2:36 14 22 mph 1022.6mb 66f 53f
2:30 16 23 mph 1022.5mb 66f 53f
2:24 16 22 mph 1022.6mb 66f 54f
2:18 17 21 mph 1022.6mb 66f 53f
2:12 20 23 mph 1022.6mb 66f 53f
2:06 17 23 mph 1022.6mb 66f 53f
2:00 17 23 mph 1022.5mb 66f 54f
1:54 14 22 mph 1022.6mb 66f 54f
1:48 17 22 mph 1022.5mb 66f 54f
1:42 16 21 mph 1022.6mb 66f 54f
1:36 16 23 mph 1022.7mb 66f 53f
1:30 15 21 mph 1022.7mb 66f 54f
1:24 16 20 mph 1022.7mb 66f 54f
1:18 17 22 mph 1022.7mb 66f 54f
1:12 14 20 mph 1022.8mb 66f 53f
1:06 15 18 mph 1022.7mb 66f 53f
1:00 10 18 mph 1022.7mb 66f 54f
12:54 14 23 mph 1022.8mb 66f 53f
12:48 17 21 mph 1022.7mb 66f 53f
12:42 13 16 mph 1022.7mb 66f 53f
12:36 14 18 mph 1022.8mb 66f 53f
12:30 15 18 mph 1022.8mb 66f 53f
12:24 14 17 mph 1022.8mb 66f 54f
12:18 10 16 mph 1023mb 66f 53f
12:12 13 17 mph 1023.1mb 66f 53f
12:06 10 16 mph 1023mb 66f 53f
12:00 13 16 mph 1023mb 66f 53f
11:54 14 17 mph 1022.9mb 66f 53f
11:48 13 16 mph 1022.8mb 66f 53f
11:42 10 16 mph 1022.9mb 66f 53f
11:36 13 17 mph 1022.8mb 66f 53f
11:30 9 13 mph 1022.8mb 66f 53f
11:24 10 15 mph 1022.8mb 66f 53f
11:18 10 15 mph 1022.8mb 66f 53f
11:12 9 14 mph 1022.8mb 66f 53f
11:06 13 17 mph 1022.8mb 66f 53f
11:00 10 16 mph 1022.7mb 66f 53f
10:54 15 17 mph 1022.7mb 66f 52f
10:48 13 16 mph 1022.7mb 66f 53f
10:42 10 13 mph 1022.7mb 66f 53f
10:36 9 13 mph 1022.7mb 66f 53f
10:30 11 17 mph 1022.8mb 66f 52f
10:24 11 15 mph 1022.9mb 66f 52f
10:18 13 20 mph 1022.8mb 66f 53f
10:12 14 20 mph 1022.7mb 66f 52f
10:06 13 16 mph 1022.7mb 66f 53f
10:00 13 15 mph 1022.8mb 66f 53f
9:54 13 15 mph 1022.8mb 66f 53f
9:48 11 14 mph 1022.8mb 66f 52f
9:42 10 15 mph 1022.7mb 66f 53f
9:36 13 15 mph 1022.6mb 66f 52f
9:30 10 13 mph 1022.6mb 66f 53f
9:24 11 18 mph 1022.6mb 66f 53f
9:18 13 16 mph 1022.6mb 66f 52f
9:12 11 14 mph 1022.7mb 66f 53f
9:06 11 14 mph 1022.8mb 66f 52f
9:00 14 17 mph 1022.7mb 66f 52f
8:54 11 15 mph 1022.7mb 66f 52f
8:48 13 17 mph 1022.8mb 66f 51f
8:42 13 16 mph 1022.8mb 66f 52f
8:36 14 18 mph 1022.9mb 66f 52f
8:30 14 20 mph 1022.9mb 66f 52f
8:24 14 20 mph 1023mb 66f 52f
8:18 14 17 mph 1023mb 66f 51f
8:12 14 17 mph 1023mb 66f 52f
8:06 14 17 mph 1023.2mb 66f 51f
8:00 14 16 mph 1023.3mb 66f 51f
7:54 16 20 mph 1023.2mb 66f 51f
7:48 17 20 mph 1023mb 66f 51f
7:42 14 18 mph 1023.2mb 66f 51f
7:36 11 16 mph 1023.3mb 66f 51f
7:30 13 17 mph 1023.2mb 66f 51f
7:24 14 17 mph 1023.1mb 66f 51f
7:18 10 15 mph 1023mb 66f 51f
7:12 11 15 mph 1022.9mb 66f 51f
7:06 9 16 mph 1023mb 66f 51f
7:00 13 18 mph 1022.9mb 66f 51f
6:54 10 17 mph 1022.9mb 66f 51f
6:48 11 17 mph 1022.7mb 66f 51f
5:54 10 16 mph 1022.3mb 67f 51f
5:48 13 17 mph 1022.3mb 67f 51f
4:00 13 16 mph 1022.1mb 68f -
3:54 11 15 mph 1022.1mb 68f -
3:48 13 16 mph 1022.3mb 68f -
3:42 14 20 mph 1022.4mb 68f -
3:36 14 17 mph 1022.3mb 68f -
3:30  -  mph 1022.5mb - -
3:24  -  mph 1022.5mb - -
3:18 13 16 mph 1022.6mb 68f 51f
3:12 10 15 mph 1022.6mb 68f 51f
3:06 10 15 mph 1022.7mb 68f 52f
3:00 10 14 mph 1022.7mb 68f 51f
2:54 9 17 mph 1022.8mb 68f 51f
2:48  -  mph 1022.7mb - -
2:42  -  mph 1022.6mb - -
2:36  -  mph 1022.6mb - -
2:30  -  mph - 68f 52f
2:24  -  mph - 68f 51f
2:18  -  mph - - 52f
2:12  -  mph - - 51f
2:06  -  mph - - 52f
2:00 16 23 mph - - -
1:54 17 21 mph - - -
1:48 14 18 mph 1022.9mb 68f 52f
1:42 14 20 mph 1023.1mb 68f 51f
1:36 16 22 mph 1023.1mb 68f 51f
1:30 13 20 mph 1023.1mb 68f 52f
1:24 13 17 mph 1023.2mb 68f 52f
1:18 9 16 mph 1023.2mb 68f 51f
1:12 13 22 mph 1023.2mb 68f 52f
1:06 15 22 mph 1023.3mb 68f 51f
1:00 14 20 mph 1023.4mb 68f 52f
12:54 13 18 mph 1023.4mb 68f 52f
12:48 15 18 mph 1023.5mb 68f 52f
12:42 13 21 mph 1023.5mb 68f 51f
12:36 16 22 mph 1023.4mb 68f 52f
12:30 14 17 mph 1023.4mb 68f 52f
12:24 16 20 mph 1023.5mb 68f 52f
12:18 14 18 mph 1023.6mb 68f 52f
12:12 14 18 mph 1023.8mb 68f 52f
12:06 11 20 mph 1024mb 68f 52f
12:00 14 17 mph 1024mb 68f 52f
So 05/31 11:54 15 22 mph 1023.9mb 68f 52f
11:48 13 16 mph 1024.1mb 68f 52f
11:42 14 18 mph 1023.9mb 68f 52f
11:36 13 18 mph 1023.8mb 68f 52f
11:30 14 18 mph 1023.8mb 68f 52f
11:24 11 16 mph 1023.9mb 68f 52f
11:18 14 16 mph 1024mb 68f 52f
11:12 13 17 mph 1024mb 68f 52f
11:06 10 16 mph 1024.2mb 68f 52f
11:00 13 21 mph 1024mb 68f 52f
10:54 13 20 mph 1023.9mb 68f 52f
10:48 13 17 mph 1023.9mb 68f 52f
10:42 13 21 mph 1023.9mb 68f 52f
10:36 15 21 mph 1024mb 68f 52f
10:30 14 21 mph 1024mb 68f 52f
10:24 14 17 mph 1024mb 68f 52f
10:18 11 17 mph 1024mb 68f 52f
10:12 14 22 mph 1023.8mb 68f 52f
10:06 11 20 mph 1023.7mb 68f 52f
10:00 13 17 mph 1023.8mb 68f 52f
9:54 15 22 mph 1023.8mb 68f 52f
9:48 17 23 mph 1023.7mb 68f 52f
9:42 14 20 mph 1023.7mb 68f 52f
9:36 14 18 mph 1023.8mb 68f 52f
9:30 16 21 mph 1023.7mb 68f 52f
9:24 13 23 mph 1023.5mb 68f 52f
9:18 13 20 mph 1023.3mb 68f 52f
9:12 10 21 mph 1023.4mb 68f 52f
9:06 17 26 mph 1023mb 68f 52f
9:00 22 26 mph 1022.8mb 68f 52f
8:54 15 22 mph 1023mb 68f 52f
8:48 16 24 mph 1023mb 68f 53f
8:42 15 20 mph 1023mb 68f 53f
8:36 17 22 mph 1023.3mb 68f 53f
8:30 14 20 mph 1023.3mb 69f 53f
8:24 16 24 mph 1023mb 69f 53f
8:18 18 23 mph 1022.8mb 69f 53f
8:12 11 18 mph 1023.3mb 69f 53f
8:06 13 23 mph 1023.1mb 69f 53f
8:00 18 28 mph 1022.7mb 69f 53f
7:54 13 20 mph 1022.9mb 69f 54f
7:48 15 20 mph 1022.9mb 69f 53f
7:42 9 15 mph 1023.1mb 68f 54f
7:36 11 16 mph 1022.9mb 68f 53f
7:00 17 22 mph 1022.2mb 68f 54f
6:54 14 20 mph 1022.1mb 68f 55f
6:48 16 22 mph 1022.1mb 68f 54f
6:42 15 28 mph 1021.8mb 68f 55f
6:36 22 30 mph 1021.3mb 68f 55f
6:30 16 24 mph 1021.5mb 68f 55f
6:24 16 29 mph 1021.2mb 68f 56f
6:18 15 21 mph 1021.1mb 68f 56f
6:12 13 29 mph 1021.2mb 68f 56f
6:06 22 32 mph 1021mb 68f 56f
6:00 17 26 mph 1021.1mb 68f 56f
5:54 21 30 mph 1020.9mb 68f 56f
5:48 18 31 mph 1020.4mb 68f 56f
5:42 17 28 mph 1020.4mb 68f 57f
5:36 20 28 mph 1020.2mb 68f 56f
5:30 22 31 mph 1020.1mb 68f 57f
5:24 24 30 mph 1019.8mb 68f 57f
5:18 22 29 mph 1019.7mb 68f 57f
5:12 25 31 mph 1019.5mb 68f 57f
5:06 20 29 mph 1019.9mb 68f 58f
5:00 28 32 mph 1019.1mb 68f 58f
4:54 24 33 mph 1019mb 68f 58f
4:48 23 31 mph 1019.1mb 68f 59f
4:42 25 34 mph 1019.2mb 68f 59f
4:36 25 37 mph 1018.5mb 68f 61f
4:30 5 10 mph 1018.4mb 68f 67f
4:24 8 11 mph 1017.8mb 68f 67f
4:18 11 13 mph 1017.7mb 68f 67f
4:12 13 14 mph 1017.7mb 68f 67f
4:06 14
mph
1017.6mb 68f 67f
4:00 14
mph
1017.7mb 68f 67f
3:54 13
mph
1017.7mb 68f 67f
3:48 11 13 mph 1017.8mb 68f 68f
3:42 10
mph
1017.9mb 68f 68f
3:36 10 13 mph 1017.8mb 68f 68f
3:30 13
mph
1017.7mb 68f 68f
3:24 13 14 mph 1017.7mb 68f 68f
3:18 14
mph
1017.7mb 68f 68f
3:12 14 15 mph 1017.7mb 68f 68f
3:06 14
mph
1017.7mb 68f 68f
3:00 14 15 mph 1017.7mb 68f 69f
2:54 14 16 mph 1017.7mb 68f 69f
2:48 14 15 mph 1017.7mb 68f 69f
2:42 15 16 mph 1017.7mb 67f 69f
2:36 16 17 mph 1017.7mb 67f 70f
2:30 17 18 mph 1017.8mb 67f 70f
2:24 15 18 mph 1017.8mb 68f 69f
2:18 17 18 mph 1017.8mb 68f 69f
2:12 18 20 mph 1017.7mb 68f 70f
2:06 18 20 mph 1017.7mb 68f 69f
2:00 18 20 mph 1017.6mb 68f 70f
1:54 18 20 mph 1017.6mb 68f 70f
1:48 17 22 mph 1017.6mb 68f 70f
1:42 21 23 mph 1017.6mb 68f 70f
1:36 23 24 mph 1017.5mb 68f 70f
1:30 22 23 mph 1017.6mb 68f 70f
1:24 20 23 mph 1017.6mb 68f 70f
1:18 20 22 mph 1017.6mb 68f 71f
1:12 18 20 mph 1017.6mb 68f 70f
1:06 17 18 mph 1017.7mb 68f 70f
1:00 15 18 mph 1017.8mb 68f 69f
12:54 15 16 mph 1017.8mb 68f 69f
12:48 14 15 mph 1017.9mb 68f 69f
12:42 11 14 mph 1018mb 68f 69f
12:36 14 16 mph 1017.9mb 68f 69f
12:30 15 16 mph 1018mb 68f 69f
12:24 15 16 mph 1017.9mb 68f 69f
12:18 14 18 mph 1018mb 68f 69f
12:12 16 17 mph 1018mb 68f 69f
12:06 16 17 mph 1018mb 68f 69f
12:00 15 16 mph 1018mb 68f 68f
11:54 16 17 mph 1018mb 68f 68f
11:48 14 17 mph 1018.1mb 68f 69f
11:42 15 16 mph 1018.1mb 68f 69f
11:36 14 16 mph 1018.1mb 68f 69f
11:30 15 17 mph 1018mb 68f 68f
11:24 15 18 mph 1018mb 68f 68f
11:18 16 17 mph 1017.9mb 68f 68f
11:12 14 20 mph 1017.9mb 67f 69f
11:06 17 18 mph 1017.8mb 67f 69f
11:00 18 21 mph 1017.8mb 67f 69f
10:54 21 22 mph 1017.8mb 67f 69f
10:48 20 21 mph 1017.8mb 67f 69f
10:42 18 20 mph 1017.9mb 67f 70f
10:36 16 20 mph 1017.9mb 67f 69f
10:30 18 20 mph 1017.8mb 67f 70f
10:24 18 21 mph 1017.8mb 67f 70f
10:18 17 20 mph 1017.8mb 67f 69f
10:12 17 18 mph 1017.9mb 67f 69f
10:06 16 17 mph 1017.9mb 67f 69f
10:00 15 16 mph 1017.9mb 67f 68f
9:54 13 15 mph 1018mb 67f 68f
9:48 15 16 mph 1018mb 67f 69f
9:42 14 15 mph 1018.1mb 67f 69f
9:36 15 16 mph 1018.2mb 67f 69f
9:30 14 15 mph 1018.3mb 67f 69f
9:24 13 15 mph 1018.4mb 67f 69f
9:18 14 15 mph 1018.3mb 67f 69f
9:12 13 16 mph 1018.4mb 67f 68f
9:06 14 16 mph 1018.3mb 67f 68f
9:00 15 17 mph 1018.2mb 67f 67f
8:54 15 16 mph 1018.3mb 67f 67f
8:48 14 15 mph 1018.3mb 67f 67f
8:42 14 15 mph 1018.2mb 67f 67f
8:36 15 16 mph 1018.2mb 67f 67f
8:30 15 17 mph 1018.2mb 67f 67f
8:24 16 17 mph 1018.2mb 67f 67f
8:18 15 17 mph 1018.1mb 67f 66f
8:12 14 17 mph 1018.1mb 67f 66f
8:06 16 17 mph 1018.1mb 67f 66f
8:00 15 17 mph 1018.1mb 67f 66f
7:54 16 18 mph 1018.1mb 67f 66f
7:48 17 18 mph 1018.1mb 67f 66f
7:42 16 18 mph 1018.1mb 67f 65f
7:36 17 18 mph 1018mb 67f 65f
7:30 16 18 mph 1018.1mb 67f 65f
7:24 17 20 mph 1018mb 67f 65f
7:18 16 17 mph 1018mb 67f 65f
7:12 15 16 mph 1018mb 67f 65f
7:06 15 17 mph 1018.1mb 67f 65f
7:00 15 16 mph 1018.1mb 67f 65f
6:54 15 16 mph 1018.1mb 67f 65f
6:48 15 16 mph 1018.2mb 67f 65f
6:42 14 16 mph 1018.1mb 67f 65f
6:36 14 15 mph 1018.2mb 67f 65f
6:30 11 14 mph 1018.1mb 67f 64f
6:24 11 14 mph 1018.1mb 67f 64f
6:18 14 15 mph 1018.1mb 67f 64f
6:12 14 16 mph 1018mb 67f 64f
6:06 15 17 mph 1018mb 67f 64f
6:00 15 16 mph 1018mb 67f 64f
5:54 16
mph
1018.1mb 67f 64f
5:48 15 16 mph 1018mb 66f 64f
5:42 15
mph
1017.9mb 66f 64f
5:36 14 15 mph 1018mb 66f 65f
5:30 14 16 mph 1018mb 66f 65f
5:24 15 17 mph 1018mb 66f 65f
5:18 15 17 mph 1017.9mb 66f 65f
5:12 15 17 mph 1017.8mb 66f 66f
5:06 15 17 mph 1017.9mb 66f 66f
5:00 14 15 mph 1018mb 66f 66f
4:54 14 15 mph 1018mb 66f 66f
4:48 13 14 mph 1018.1mb 66f 66f
4:42 11 14 mph 1018.2mb 66f 66f
4:36 13 14 mph 1018.2mb 67f 66f
4:30 13 14 mph 1018.3mb 67f 66f
4:24 14 15 mph 1018.3mb 67f 66f
4:18 14 16 mph 1018.4mb 67f 66f
4:12 14 15 mph 1018.3mb 67f 66f
4:06 13 16 mph 1018.3mb 67f 66f
4:00 13 17 mph 1018.4mb 67f 66f
3:54 14 15 mph 1018.3mb 67f 66f
3:48 14 16 mph 1018.3mb 67f 66f
3:42 16 20 mph 1018.3mb 67f 66f
3:36 15 20 mph 1018.3mb 67f 66f
3:30 16 20 mph 1018.2mb 67f 66f
3:24 16 20 mph 1018.1mb 67f 66f
3:18 15 23 mph 1018.3mb 67f 66f
3:12 16 21 mph 1018.3mb 67f 66f
3:06 17 22 mph 1018.1mb 67f 66f
3:00 17 21 mph 1018.2mb 67f 66f
2:54 18 22 mph 1018.1mb 67f 66f
2:48 18 21 mph 1018.1mb 67f 66f
2:42 18 23 mph 1018.2mb 67f 66f
2:36 18 20 mph 1018.3mb 67f 66f
2:30 18 20 mph 1018.2mb 66f 65f
2:24 18 21 mph 1018.2mb 66f 66f
2:18 17 20 mph 1018.3mb 66f 66f
2:12 17 18 mph 1018.3mb 66f 66f
2:06 17 20 mph 1018.4mb 66f 66f
2:00 16 21 mph 1018.4mb 66f 66f
1:54 16 21 mph 1018.6mb 66f 66f
1:48 17 20 mph 1018.5mb 66f 66f
1:42 18 22 mph 1018.5mb 67f 66f
1:36 16 18 mph 1018.4mb 67f 66f
1:30 17 21 mph 1018.7mb 67f 66f
1:24 16 21 mph 1018.8mb 67f 66f
1:18 17 21 mph 1018.7mb 67f 66f
1:12 17 20 mph 1018.6mb 67f 66f
1:06 18 21 mph 1018.7mb 67f 66f
1:00 17 21 mph 1018.8mb 67f 66f
12:54 17 22 mph 1018.7mb 67f 66f
12:48 17 21 mph 1018.7mb 67f 66f
12:42 18 21 mph 1018.8mb 67f 66f
12:36 20 22 mph 1018.9mb 67f 66f
12:30 18 22 mph 1018.9mb 67f 66f
12:24 20 21 mph 1019mb 67f 66f
12:18 16 18 mph 1019.1mb 67f 66f
12:12 16 18 mph 1019.3mb 67f 66f
12:06 15 17 mph 1019.4mb 67f 66f
12:00 15 17 mph 1019.4mb 66f 66f
Sa 05/30 11:54 16 20 mph 1019.3mb 66f 67f
11:48 15 20 mph 1019.4mb 66f 67f
11:42 16 20 mph 1019.3mb 66f 67f
11:36 17 20 mph 1019.3mb 66f 67f
11:30 18 21 mph 1019mb 66f 67f
11:24 16 17 mph 1019mb 66f 66f
11:18 16 20 mph 1019.1mb 66f 67f
11:12 16 20 mph 1019.1mb 66f 67f
11:06 16 21 mph 1019.2mb 66f 67f
11:00 17 21 mph 1019.2mb 66f 67f
10:54 16 20 mph 1019.3mb 66f 67f
10:48 15 21 mph 1019.4mb 66f 67f
10:42 17 23 mph 1019.4mb 66f 67f
10:36 17 20 mph 1019.4mb 66f 67f
10:30 17 20 mph 1019.2mb 66f 67f
10:24 17 21 mph 1019.4mb 66f 67f
10:18 16 23 mph 1019.5mb 66f 67f
10:12 20 23 mph 1019.4mb 66f 67f
10:06 16 22 mph 1019.5mb 66f 67f
10:00 20 23 mph 1019.3mb 66f 67f
9:54 22 25 mph 1019.2mb 66f 67f
9:48 20 23 mph 1019.2mb 66f 67f
9:42 20 24 mph 1019.2mb 66f 67f
9:36 18 23 mph 1019.2mb 66f 67f
9:30 22 26 mph 1019.2mb 66f 67f
9:24 23 25 mph 1019.1mb 66f 67f
9:18 22 25 mph 1019mb 66f 67f
9:12 22 24 mph 1018.9mb 66f 67f
9:06 22 25 mph 1018.9mb 66f 67f
9:00 23 24 mph 1018.8mb 66f 67f
8:54 21 24 mph 1018.8mb 67f 67f
8:48 22 24 mph 1018.7mb 67f 67f
8:42 22 24 mph 1018.7mb 67f 67f
8:36 22 24 mph 1018.7mb 67f 68f
8:30 18 25 mph 1018.8mb 67f 68f
8:24 21 24 mph 1018.8mb 67f 69f
8:18 23 26 mph 1018.9mb 67f 69f
8:12 18 23 mph 1019mb 67f 69f
8:06 18 25 mph 1019.1mb 67f 69f
8:00 20 22 mph 1019mb 67f 69f
7:54 20 24 mph 1019.1mb 67f 69f
7:48 20 22 mph 1019.1mb 67f 69f
7:42 21 28 mph 1019.1mb 67f 69f
7:36 22 25 mph 1019.2mb 67f 70f
7:30 22 29 mph 1019.3mb 66f 70f
7:24 25 30 mph 1019.1mb 66f 70f
7:18 29 32 mph 1019.2mb 66f 71f
7:12 28 31 mph 1019.2mb 66f 71f
7:06 26 30 mph 1019.1mb 66f 71f
7:00 25 28 mph 1019.1mb 66f 71f
6:54 26 29 mph 1019.1mb 66f 71f
6:48 24 28 mph 1019.1mb 66f 71f
6:42 22 25 mph 1019.2mb 66f 72f
6:36 24 28 mph 1019.1mb 66f 71f
6:30 23 28 mph 1019.1mb 66f 71f
6:24 25 29 mph 1019.2mb 66f 72f
6:18 24 29 mph 1019.2mb 66f 71f
6:12 25 30 mph 1019.2mb 66f 72f
6:06 25 29 mph 1019.1mb 66f 71f
6:00 26 30 mph 1019.1mb 66f 71f
5:54 28 30 mph 1019.1mb 67f 72f
5:48 28 31 mph 1019.1mb 67f 71f
5:42 30 33 mph 1019.2mb 67f 72f
5:36 29 34 mph 1019.1mb 67f 72f
5:30 28 33 mph 1019.2mb 67f 73f
5:24 30 37 mph 1019.3mb 67f 73f
5:18 29 33 mph 1019.4mb 67f 73f
5:12 31 36 mph 1019.3mb 67f 73f
5:06 28 32 mph 1019.3mb 67f 72f
5:00 28 33 mph 1019.3mb 67f 72f
4:54 29 32 mph 1019.4mb 67f 72f
4:48 26 30 mph 1019.4mb 67f 73f